createdAt,value
2018-05-10T00:01:29.498Z,6.37
2018-05-10T00:03:56.105Z,5.33
2018-05-10T00:06:22.744Z,6.13
2018-05-10T00:08:49.241Z,6.53
2018-05-10T00:11:15.715Z,4.93
2018-05-10T00:13:42.098Z,7.00
2018-05-10T00:16:09.247Z,6.90
2018-05-10T00:18:35.661Z,5.50
2018-05-10T00:21:02.110Z,6.23
2018-05-10T00:23:28.492Z,5.90
2018-05-10T00:25:54.998Z,6.03
2018-05-10T00:28:21.582Z,5.07
2018-05-10T00:30:48.102Z,4.90
2018-05-10T00:33:14.535Z,5.60
2018-05-10T00:35:41.069Z,4.93
2018-05-10T00:38:07.493Z,5.27
2018-05-10T00:40:33.922Z,4.90
2018-05-10T00:43:00.371Z,4.40
2018-05-10T00:45:26.938Z,4.93
2018-05-10T00:47:53.333Z,5.23
2018-05-10T00:50:19.751Z,6.70
2018-05-10T00:52:46.161Z,4.37
2018-05-10T00:55:12.635Z,5.27
2018-05-10T00:57:39.098Z,6.30
2018-05-10T01:00:05.512Z,3.37
2018-05-10T01:02:32.028Z,4.27
2018-05-10T01:04:58.539Z,4.50
2018-05-10T01:07:24.887Z,4.40
2018-05-10T01:09:51.311Z,4.33
2018-05-10T01:12:17.744Z,4.53
2018-05-10T01:14:44.180Z,4.40
2018-05-10T01:17:11.523Z,4.50
2018-05-10T01:19:37.977Z,4.97
2018-05-10T01:22:04.566Z,4.70
2018-05-10T01:24:31.047Z,4.07
2018-05-10T01:26:58.515Z,4.30
2018-05-10T01:29:25.094Z,6.17
2018-05-10T01:31:51.529Z,6.17
2018-05-10T01:34:18.179Z,5.20
2018-05-10T01:36:44.673Z,4.23
2018-05-10T01:39:11.150Z,5.20
2018-05-10T01:41:37.548Z,7.03
2018-05-10T01:44:04.010Z,6.17
2018-05-10T01:46:30.863Z,4.30
2018-05-10T01:48:57.367Z,4.20
2018-05-10T01:51:23.783Z,3.97
2018-05-10T01:53:50.957Z,4.17
2018-05-10T01:56:17.401Z,3.47
2018-05-10T01:58:43.880Z,3.23
2018-05-10T02:01:10.359Z,4.70
2018-05-10T02:03:36.741Z,3.63
2018-05-10T02:06:03.246Z,3.80
2018-05-10T02:08:29.678Z,4.50
2018-05-10T02:10:56.096Z,3.97
2018-05-10T02:13:23.483Z,3.67
2018-05-10T02:15:49.988Z,3.80
2018-05-10T02:18:16.377Z,4.87
2018-05-10T02:20:43.480Z,5.27
2018-05-10T02:23:09.936Z,4.50
2018-05-10T02:25:36.348Z,4.63
2018-05-10T02:28:02.906Z,8.32
2018-05-10T02:30:29.413Z,4.50
2018-05-10T02:32:55.846Z,3.90
2018-05-10T02:35:22.475Z,4.30
2018-05-10T02:37:48.953Z,4.28
2018-05-10T02:40:15.570Z,4.13
2018-05-10T02:42:41.987Z,4.50
2018-05-10T02:45:08.496Z,4.80
2018-05-10T02:47:35.466Z,3.47
2018-05-10T02:50:01.908Z,3.97
2018-05-10T02:52:28.364Z,4.53
2018-05-10T02:54:54.994Z,3.90
2018-05-10T02:57:21.430Z,5.28
2018-05-10T02:59:47.829Z,5.78
2018-05-10T03:02:14.379Z,4.60
2018-05-10T03:04:41.085Z,5.95
2018-05-10T03:07:07.615Z,5.07
2018-05-10T03:09:34.107Z,5.05
2018-05-10T03:12:01.368Z,3.80
2018-05-10T03:14:27.770Z,4.62
2018-05-10T03:16:54.340Z,4.90
2018-05-10T03:19:20.757Z,4.68
2018-05-10T03:21:47.176Z,5.03
2018-05-10T03:24:14.373Z,5.50
2018-05-10T03:26:40.770Z,5.45
2018-05-10T03:29:08.224Z,5.28
2018-05-10T03:31:34.921Z,6.30
2018-05-10T03:34:01.412Z,4.70
2018-05-10T03:36:27.979Z,5.05
2018-05-10T03:38:54.402Z,5.18
2018-05-10T03:41:20.855Z,6.32
2018-05-10T03:43:47.308Z,5.55
2018-05-10T03:46:14.174Z,5.32
2018-05-10T03:48:41.412Z,6.93
2018-05-10T03:51:12.070Z,6.35
2018-05-10T03:53:38.481Z,6.57
2018-05-10T03:56:05.026Z,6.80
2018-05-10T03:58:32.142Z,5.65
2018-05-10T04:00:58.895Z,5.68
2018-05-10T04:03:50.360Z,6.00
2018-05-10T04:06:35.204Z,6.35
2018-05-10T04:09:20.149Z,7.37
2018-05-10T04:11:46.737Z,7.10
2018-05-10T04:14:13.130Z,5.87
2018-05-10T04:16:39.569Z,7.57
2018-05-10T04:19:05.969Z,8.07
2018-05-10T04:21:32.447Z,6.97
2018-05-10T04:23:58.925Z,6.43
2018-05-10T04:26:25.402Z,8.52
2018-05-10T04:28:51.846Z,7.65
2018-05-10T04:31:18.478Z,9.20
2018-05-10T04:33:44.951Z,7.45
2018-05-10T04:36:15.862Z,7.90
2018-05-10T04:38:43.006Z,5.78
2018-05-10T04:41:09.408Z,6.15
2018-05-10T04:43:35.978Z,5.43
2018-05-10T04:46:02.342Z,5.57
2018-05-10T04:48:28.783Z,6.70
2018-05-10T04:50:59.547Z,8.38
2018-05-10T04:53:26.905Z,5.68
2018-05-10T04:55:53.378Z,6.53
2018-05-10T04:58:19.807Z,6.93
2018-05-10T05:00:46.646Z,6.60
2018-05-10T05:03:13.125Z,8.20
2018-05-10T05:05:40.216Z,8.48
2018-05-10T05:08:06.611Z,8.65
2018-05-10T05:10:33.801Z,8.23
2018-05-10T05:13:01.044Z,8.98
2018-05-10T05:15:27.494Z,9.77
2018-05-10T05:17:53.920Z,10.50
2018-05-10T05:20:20.603Z,11.85
2018-05-10T05:22:47.451Z,11.82
2018-05-10T05:25:14.090Z,11.40
2018-05-10T05:27:41.267Z,11.48
2018-05-10T05:30:07.791Z,12.60
2018-05-10T05:32:34.312Z,13.30
2018-05-10T05:35:00.830Z,17.25
2018-05-10T05:37:27.257Z,19.03
2018-05-10T05:39:53.656Z,14.43
2018-05-10T05:42:20.470Z,15.73
2018-05-10T05:44:46.889Z,14.15
2018-05-10T05:47:13.343Z,14.75
2018-05-10T05:49:39.756Z,15.45
2018-05-10T05:52:06.285Z,16.33
2018-05-10T05:54:32.904Z,19.27
2018-05-10T05:57:00.130Z,19.62
2018-05-10T05:59:26.671Z,17.48
2018-05-10T06:01:53.174Z,16.60
2018-05-10T06:04:19.718Z,16.35
2018-05-10T06:06:46.234Z,16.77
2018-05-10T06:09:12.775Z,17.85
2018-05-10T06:11:39.277Z,17.00
2018-05-10T06:14:05.791Z,15.20
2018-05-10T06:16:32.996Z,18.33
2018-05-10T06:18:59.478Z,16.87
2018-05-10T06:21:25.862Z,17.27
2018-05-10T06:23:53.069Z,15.30
2018-05-10T06:26:19.658Z,16.23
2018-05-10T06:28:46.289Z,16.33
2018-05-10T06:31:13.291Z,17.73
2018-05-10T06:33:40.693Z,16.37
2018-05-10T06:36:20.175Z,17.73
2018-05-10T06:38:48.865Z,20.00
2018-05-10T06:41:16.034Z,17.20
2018-05-10T06:43:42.757Z,16.92
2018-05-10T06:46:09.182Z,18.67
2018-05-10T06:48:35.875Z,18.87
2018-05-10T06:51:02.843Z,17.75
2018-05-10T06:53:29.748Z,17.67
2018-05-10T06:56:01.783Z,22.15
2018-05-10T06:58:28.409Z,19.27
2018-05-10T07:00:59.351Z,18.42
2018-05-10T07:03:25.856Z,18.02
2018-05-10T07:05:52.277Z,19.95
2018-05-10T07:08:18.874Z,17.50
2018-05-10T07:10:45.612Z,19.67
2018-05-10T07:13:12.124Z,19.27
2018-05-10T07:15:38.853Z,20.43
2018-05-10T07:18:05.266Z,17.27
2018-05-10T07:20:32.371Z,19.20
2018-05-10T07:22:58.985Z,19.20
2018-05-10T07:25:25.494Z,20.17
2018-05-10T07:27:51.992Z,25.27
2018-05-10T07:30:18.758Z,18.93
2018-05-10T07:32:45.106Z,17.73
2018-05-10T07:35:12.302Z,18.93
2018-05-10T07:37:38.685Z,18.77
2018-05-10T07:40:05.979Z,18.33
2018-05-10T07:42:32.377Z,21.40
2018-05-10T07:44:59.523Z,19.90
2018-05-10T07:47:26.079Z,20.13
2018-05-10T07:49:52.401Z,20.73
2018-05-10T07:52:18.797Z,19.50
2018-05-10T07:54:45.252Z,21.90
2018-05-10T07:57:12.329Z,19.47
2018-05-10T07:59:38.696Z,21.57
2018-05-10T08:02:05.175Z,20.50
2018-05-10T08:04:31.660Z,21.60
2018-05-10T08:06:58.291Z,22.90
2018-05-10T08:09:26.287Z,21.27
2018-05-10T08:11:52.869Z,20.83
2018-05-10T08:14:19.526Z,19.60
2018-05-10T08:16:46.779Z,22.07
2018-05-10T08:19:13.442Z,24.67
2018-05-10T08:21:41.059Z,24.10
2018-05-10T08:24:09.304Z,23.53
2018-05-10T08:26:36.486Z,23.60
2018-05-10T08:29:04.291Z,20.77
2018-05-10T08:31:31.328Z,17.77
2018-05-10T08:33:58.233Z,21.63
2018-05-10T08:36:25.406Z,21.17
2018-05-10T08:38:53.180Z,20.00
2018-05-10T08:41:33.666Z,19.77
2018-05-10T08:44:09.368Z,21.77
2018-05-10T08:46:38.514Z,22.47
2018-05-10T08:51:45.197Z,20.87
2018-05-10T08:54:18.541Z,23.00
2018-05-10T08:56:46.845Z,21.43
2018-05-10T08:59:21.034Z,20.67
2018-05-10T09:01:59.328Z,22.23
2018-05-10T09:04:31.940Z,20.77
2018-05-10T09:06:59.306Z,22.93
2018-05-10T09:09:26.634Z,25.50
2018-05-10T09:11:53.662Z,21.80
2018-05-10T09:14:20.269Z,21.80
2018-05-10T09:16:46.747Z,21.50
2018-05-10T09:19:15.348Z,21.60
2018-05-10T09:21:42.894Z,20.43
2018-05-10T09:24:14.201Z,22.07
2018-05-10T09:26:41.019Z,19.40
2018-05-10T09:29:08.214Z,20.63
2018-05-10T09:31:35.883Z,21.83
2018-05-10T09:34:02.802Z,22.33
2018-05-10T09:36:29.932Z,20.43
2018-05-10T09:38:57.594Z,23.40
2018-05-10T09:41:24.969Z,22.97
2018-05-10T09:43:52.234Z,24.97
2018-05-10T09:46:19.685Z,24.57
2018-05-10T09:48:46.737Z,27.60
2018-05-10T09:51:13.237Z,27.43
2018-05-10T09:53:39.603Z,24.60
2018-05-10T09:56:06.028Z,34.83
2018-05-10T09:58:32.520Z,37.13
2018-05-10T10:00:58.969Z,33.37
2018-05-10T10:03:25.333Z,33.33
2018-05-10T10:05:51.731Z,35.57
2018-05-10T10:08:18.385Z,37.20
2018-05-10T10:10:44.732Z,36.20
2018-05-10T10:13:11.278Z,37.03
2018-05-10T10:15:37.887Z,34.73
2018-05-10T10:18:05.102Z,33.13
2018-05-10T10:20:31.527Z,35.05
2018-05-10T10:23:03.416Z,31.90
2018-05-10T10:25:29.830Z,31.63
2018-05-10T10:27:56.601Z,34.87
2018-05-10T10:30:22.950Z,31.75
2018-05-10T10:32:49.369Z,30.52
2018-05-10T10:35:16.053Z,32.45
2018-05-10T10:37:46.546Z,32.65
2018-05-10T10:40:13.069Z,32.88
2018-05-10T10:42:39.388Z,33.55
2018-05-10T10:45:05.785Z,30.90
2018-05-10T10:47:32.968Z,31.33
2018-05-10T10:49:59.370Z,34.57
2018-05-10T10:52:25.745Z,30.15
2018-05-10T10:54:56.375Z,32.20
2018-05-10T10:57:22.746Z,31.70
2018-05-10T10:59:49.141Z,31.97
2018-05-10T11:02:15.524Z,29.10
2018-05-10T11:04:42.629Z,30.53
2018-05-10T11:07:09.099Z,28.63
2018-05-10T11:09:35.803Z,30.57
2018-05-10T11:12:02.328Z,31.90
2018-05-10T11:14:28.822Z,31.63
2018-05-10T11:16:56.038Z,29.43
2018-05-10T11:19:22.486Z,29.40
2018-05-10T11:21:49.686Z,29.87
2018-05-10T11:24:16.129Z,31.07
2018-05-10T11:26:42.567Z,29.90
2018-05-10T11:29:09.110Z,31.10
2018-05-10T11:31:35.624Z,38.60
2018-05-10T11:34:02.000Z,33.27
2018-05-10T11:36:28.574Z,34.53
2018-05-10T11:38:54.970Z,31.93
2018-05-10T11:41:22.262Z,35.70
2018-05-10T11:43:48.693Z,36.10
2018-05-10T11:46:15.149Z,31.53
2018-05-10T11:48:41.841Z,33.60
2018-05-10T11:51:08.526Z,30.40
2018-05-10T11:53:34.899Z,32.87
2018-05-10T11:56:02.106Z,31.37
2018-05-10T11:58:28.616Z,30.50
2018-05-10T12:00:55.323Z,34.30
2018-05-10T12:03:22.219Z,32.90
2018-05-10T12:05:49.214Z,34.10
2018-05-10T12:08:16.397Z,34.70
2018-05-10T12:10:43.318Z,32.00
2018-05-10T12:13:09.864Z,32.67
2018-05-10T12:15:36.205Z,36.47
2018-05-10T12:18:02.612Z,41.33
2018-05-10T12:20:29.086Z,31.57
2018-05-10T12:22:55.733Z,32.80
2018-05-10T12:25:26.015Z,34.53
2018-05-10T12:27:52.742Z,31.43
2018-05-10T12:30:19.449Z,28.80
2018-05-10T12:32:45.780Z,26.17
2018-05-10T12:35:12.949Z,25.65
2018-05-10T12:37:39.349Z,27.40
2018-05-10T12:40:06.814Z,28.45
2018-05-10T12:42:34.069Z,23.62
2018-05-10T12:45:01.323Z,25.60
2018-05-10T12:47:27.905Z,28.85
2018-05-10T12:49:54.335Z,27.70
2018-05-10T12:52:21.155Z,28.52
2018-05-10T12:54:48.058Z,26.70
2018-05-10T12:57:15.263Z,26.87
2018-05-10T12:59:41.899Z,24.97
2018-05-10T13:02:08.342Z,25.77
2018-05-10T13:04:35.131Z,23.73
2018-05-10T13:07:02.242Z,22.00
2018-05-10T13:09:29.368Z,22.03
2018-05-10T13:11:56.064Z,24.03
2018-05-10T13:14:22.983Z,26.03
2018-05-10T13:16:50.020Z,26.47
2018-05-10T13:19:16.720Z,24.40
2018-05-10T13:21:43.166Z,20.40
2018-05-10T13:24:09.470Z,14.20
2018-05-10T13:26:36.585Z,13.40
2018-05-10T13:29:03.529Z,13.10
2018-05-10T13:31:30.646Z,12.03
2018-05-10T13:33:57.081Z,11.57
2018-05-10T13:36:23.904Z,10.75
2018-05-10T13:38:50.554Z,9.35
2018-05-10T13:41:17.931Z,10.55
2018-05-10T13:43:44.441Z,10.45
2018-05-10T13:46:10.883Z,15.98
2018-05-10T13:48:38.253Z,9.85
2018-05-10T13:51:04.764Z,9.98
2018-05-10T13:53:32.250Z,12.37
2018-05-10T13:55:59.048Z,11.02
2018-05-10T13:58:25.494Z,16.23
2018-05-10T14:00:51.856Z,13.02
2018-05-10T14:03:18.275Z,14.80
2018-05-10T14:05:44.698Z,13.98
2018-05-10T14:08:11.151Z,16.67
2018-05-10T14:10:37.568Z,17.35
2018-05-10T14:13:03.980Z,18.90
2018-05-10T14:15:30.837Z,19.75
2018-05-10T14:17:57.249Z,18.80
2018-05-10T14:20:23.696Z,26.42
2018-05-10T14:22:51.171Z,26.67
2018-05-10T14:25:17.786Z,25.77
2018-05-10T14:27:44.153Z,24.00
2018-05-10T14:30:10.534Z,24.27
2018-05-10T14:32:37.933Z,24.87
2018-05-10T14:35:04.278Z,27.95
2018-05-10T14:37:31.474Z,24.60
2018-05-10T14:39:57.898Z,23.02
2018-05-10T14:42:24.277Z,21.23
2018-05-10T14:44:50.614Z,21.80
2018-05-10T14:47:17.785Z,22.52
2018-05-10T14:49:44.182Z,15.80
2018-05-10T14:52:10.535Z,15.20
2018-05-10T14:54:38.061Z,16.23
2018-05-10T14:57:04.453Z,12.00
2018-05-10T14:59:30.790Z,15.18
2018-05-10T15:01:57.251Z,8.55
2018-05-10T15:04:23.674Z,8.00
2018-05-10T15:06:50.062Z,7.53
2018-05-10T15:09:16.474Z,7.28
2018-05-10T15:11:43.792Z,9.65
2018-05-10T15:14:10.275Z,18.62
2018-05-10T15:16:37.424Z,8.20
2018-05-10T15:19:03.848Z,7.80
2018-05-10T15:21:31.134Z,7.78
2018-05-10T15:23:57.623Z,8.23
2018-05-10T15:26:24.911Z,10.82
2018-05-10T15:28:51.322Z,6.95
2018-05-10T15:31:18.564Z,7.78
2018-05-10T15:33:45.651Z,10.55
2018-05-10T15:36:16.486Z,11.10
2018-05-10T15:38:43.121Z,8.20
2018-05-10T15:41:09.676Z,8.43
2018-05-10T15:43:40.601Z,6.03
2018-05-10T15:46:07.279Z,5.82
2018-05-10T15:48:34.286Z,9.45
2018-05-10T15:51:00.743Z,7.70
2018-05-10T15:53:27.141Z,5.65
2018-05-10T15:55:54.236Z,5.32
2018-05-10T15:58:20.993Z,5.93
2018-05-10T16:00:47.427Z,5.93
2018-05-10T16:03:13.793Z,6.80
2018-05-10T16:05:40.988Z,6.82
2018-05-10T16:08:08.351Z,5.87
2018-05-10T16:10:35.505Z,5.93
2018-05-10T16:13:02.622Z,8.43
2018-05-10T16:15:29.086Z,7.53
2018-05-10T16:17:56.296Z,6.90
2018-05-10T16:20:22.788Z,7.12
2018-05-10T16:22:49.167Z,7.53
2018-05-10T16:25:15.518Z,11.55
2018-05-10T16:27:42.652Z,8.80
2018-05-10T16:30:09.040Z,8.13
2018-05-10T16:32:35.389Z,7.85
2018-05-10T16:35:02.211Z,9.95
2018-05-10T16:37:28.643Z,6.68
2018-05-10T16:39:55.129Z,9.48
2018-05-10T16:42:22.323Z,10.45
2018-05-10T16:44:49.764Z,10.35
2018-05-10T16:47:16.079Z,5.97
2018-05-10T16:49:43.279Z,7.45
2018-05-10T16:52:09.653Z,6.30
2018-05-10T16:54:36.047Z,8.88
2018-05-10T16:57:02.524Z,8.75
2018-05-10T16:59:28.959Z,6.07
2018-05-10T17:01:56.110Z,7.97
2018-05-10T17:04:22.582Z,6.47
2018-05-10T17:06:49.441Z,6.47
2018-05-10T17:09:15.907Z,7.45
2018-05-10T17:11:43.102Z,7.72
2018-05-10T17:14:10.300Z,10.95
2018-05-10T17:16:36.681Z,7.60
2018-05-10T17:19:03.214Z,6.40
2018-05-10T17:21:29.920Z,7.03
2018-05-10T17:23:56.506Z,6.10
2018-05-10T17:26:23.106Z,7.37
2018-05-10T17:28:50.813Z,6.95
2018-05-10T17:31:17.325Z,6.37
2018-05-10T17:33:43.902Z,9.02
2018-05-10T17:36:11.121Z,6.30
2018-05-10T17:38:41.906Z,12.90
2018-05-10T17:41:09.438Z,6.35
2018-05-10T17:43:35.936Z,7.85
2018-05-10T17:46:02.618Z,8.30
2018-05-10T17:48:30.203Z,10.35
2018-05-10T17:50:58.202Z,6.53
2018-05-10T17:53:25.522Z,7.32
2018-05-10T17:55:52.920Z,10.17
2018-05-10T17:58:19.495Z,6.75
2018-05-10T18:00:46.262Z,7.57
2018-05-10T18:03:12.771Z,7.62
2018-05-10T18:05:39.413Z,8.75
2018-05-10T18:08:06.196Z,9.20
2018-05-10T18:10:32.590Z,7.07
2018-05-10T18:12:59.659Z,7.32
2018-05-10T18:15:26.176Z,8.65
2018-05-10T18:17:52.545Z,12.23
2018-05-10T18:20:18.941Z,15.00
2018-05-10T18:22:45.644Z,16.65
2018-05-10T18:25:12.126Z,18.27
2018-05-10T18:27:38.764Z,21.12
2018-05-10T18:30:05.240Z,21.42
2018-05-10T18:32:32.140Z,20.12
2018-05-10T18:34:58.942Z,23.67
2018-05-10T18:37:30.428Z,22.10
2018-05-10T18:39:57.270Z,21.25
2018-05-10T18:42:23.934Z,15.93
2018-05-10T18:44:50.696Z,15.68
2018-05-10T18:47:17.795Z,13.10
2018-05-10T18:49:44.256Z,15.50
2018-05-10T18:52:10.966Z,10.73
2018-05-10T18:54:37.500Z,12.32
2018-05-10T18:57:04.352Z,10.55
2018-05-10T18:59:30.941Z,10.90
2018-05-10T19:01:59.169Z,9.35
2018-05-10T19:04:25.588Z,12.10
2018-05-10T19:06:52.390Z,8.90
2018-05-10T19:09:18.891Z,10.98
2018-05-10T19:11:45.342Z,12.90
2018-05-10T19:14:12.683Z,9.32
2018-05-10T19:16:39.228Z,11.73
2018-05-10T19:19:06.916Z,11.70
2018-05-10T19:21:33.462Z,9.70
2018-05-10T19:24:00.479Z,12.70
2018-05-10T19:26:27.204Z,13.90
2018-05-10T19:28:53.637Z,14.95
2018-05-10T19:31:20.049Z,10.38
2018-05-10T19:33:46.574Z,9.13
2018-05-10T19:36:13.020Z,9.73
2018-05-10T19:38:39.455Z,9.85
2018-05-10T19:41:06.043Z,10.27
2018-05-10T19:43:32.598Z,10.18
2018-05-10T19:45:59.058Z,10.30
2018-05-10T19:48:26.255Z,11.15
2018-05-10T19:50:52.646Z,18.00
2018-05-10T19:53:19.083Z,11.65
2018-05-10T19:55:45.567Z,13.88
2018-05-10T19:58:11.980Z,12.82
2018-05-10T20:00:38.414Z,13.45
2018-05-10T20:03:05.006Z,11.73
2018-05-10T20:05:31.500Z,12.27
2018-05-10T20:07:57.972Z,13.77
2018-05-10T20:10:24.473Z,14.23
2018-05-10T20:12:51.259Z,17.02
2018-05-10T20:15:17.804Z,15.20
2018-05-10T20:17:44.347Z,18.55
2018-05-10T20:20:15.726Z,20.88
2018-05-10T20:22:42.220Z,20.10
2018-05-10T20:25:08.746Z,18.75
2018-05-10T20:27:35.106Z,18.27
2018-05-10T20:30:01.671Z,20.48
2018-05-10T20:32:28.994Z,23.20
2018-05-10T20:34:55.746Z,29.37
2018-05-10T20:37:22.318Z,31.30
2018-05-10T20:39:48.744Z,31.05
2018-05-10T20:42:15.148Z,29.83
2018-05-10T20:44:41.630Z,31.90
2018-05-10T20:47:08.047Z,28.15
2018-05-10T20:49:35.452Z,28.10
2018-05-10T20:52:01.945Z,27.83
2018-05-10T20:54:28.483Z,27.13
2018-05-10T20:56:54.843Z,27.60
2018-05-10T20:59:21.272Z,23.75
2018-05-10T21:01:47.742Z,24.40
2018-05-10T21:04:14.321Z,22.08
2018-05-10T21:06:40.758Z,22.33
2018-05-10T21:09:07.465Z,16.42
2018-05-10T21:11:33.926Z,15.00
2018-05-10T21:14:00.399Z,12.30
2018-05-10T21:16:27.073Z,17.50
2018-05-10T21:18:53.471Z,10.00
2018-05-10T21:21:19.975Z,15.88
2018-05-10T21:23:46.393Z,9.82
2018-05-10T21:26:13.004Z,12.87
2018-05-10T21:28:39.398Z,9.90
2018-05-10T21:31:06.021Z,10.55
2018-05-10T21:33:32.548Z,10.52
2018-05-10T21:35:59.008Z,9.10
2018-05-10T21:38:25.562Z,9.15
2018-05-10T21:40:51.947Z,9.40
2018-05-10T21:43:18.416Z,9.43
2018-05-10T21:45:44.975Z,8.90
2018-05-10T21:48:12.875Z,9.70
2018-05-10T21:50:39.429Z,8.05
2018-05-10T21:53:06.033Z,9.55
2018-05-10T21:55:32.476Z,6.15
2018-05-10T21:57:58.912Z,7.82
2018-05-10T22:00:25.395Z,8.80
2018-05-10T22:02:51.880Z,6.75
2018-05-10T22:05:18.473Z,6.72
2018-05-10T22:07:44.947Z,8.35
2018-05-10T22:10:11.590Z,7.78
2018-05-10T22:12:38.045Z,8.57
2018-05-10T22:15:04.659Z,6.25
2018-05-10T22:17:31.255Z,7.07
2018-05-10T22:19:57.756Z,8.23
2018-05-10T22:22:24.124Z,6.68
2018-05-10T22:24:50.667Z,7.28
2018-05-10T22:27:18.071Z,6.60
2018-05-10T22:29:44.468Z,7.45
2018-05-10T22:32:11.776Z,8.77
2018-05-10T22:34:38.241Z,7.12
2018-05-10T22:37:05.392Z,6.53
2018-05-10T22:39:31.880Z,5.40
2018-05-10T22:41:58.323Z,11.18
2018-05-10T22:44:24.793Z,5.75
2018-05-10T22:46:51.122Z,7.32
2018-05-10T22:49:18.337Z,9.90
2018-05-10T22:51:44.729Z,5.97
2018-05-10T22:54:11.112Z,5.35
2018-05-10T22:56:37.604Z,5.33
2018-05-10T22:59:04.122Z,8.77
2018-05-10T23:01:30.625Z,7.20
2018-05-10T23:03:57.121Z,5.68
2018-05-10T23:06:23.600Z,5.12
2018-05-10T23:08:50.000Z,8.60
2018-05-10T23:11:16.403Z,7.32
2018-05-10T23:13:42.916Z,8.63
2018-05-10T23:16:09.386Z,8.48
2018-05-10T23:18:35.724Z,11.85
2018-05-10T23:21:02.199Z,6.40
2018-05-10T23:23:28.621Z,7.70
2018-05-10T23:25:55.002Z,7.50
2018-05-10T23:28:21.488Z,7.87
2018-05-10T23:30:47.891Z,6.95
2018-05-10T23:33:14.390Z,8.90
2018-05-10T23:35:40.923Z,5.93
2018-05-10T23:38:07.124Z,6.62
2018-05-10T23:40:34.310Z,6.30
2018-05-10T23:43:00.764Z,6.07
2018-05-10T23:45:31.363Z,6.62
2018-05-10T23:47:58.498Z,6.70
2018-05-10T23:50:25.786Z,8.95
2018-05-10T23:52:52.187Z,8.50
2018-05-10T23:55:18.541Z,6.68
2018-05-10T23:57:44.971Z,8.57
